Time;durP1;ratioP1;P1;durP2;ratioP2;P2;SDS_P1;SDS_P2;PMS_P1;PMS_P2;Temp;Humidity;BMP_temperature;BMP_pressure;BME280_temperature;BME280_humidity;BME280_pressure;Samples;Min_cycle;Max_cycle;Signal;HPM_P1;HPM_P2
2024/04/18 00:01:08;;;;;;;1.83;0.60;;;;;;;11.58;100.00;97910.00;5429449;26;20353;-75
2024/04/18 00:03:34;;;;;;;1.95;0.43;;;;;;;12.73;100.00;98083.97;5423760;26;19999;-74
2024/04/18 00:05:59;;;;;;;3.08;0.77;;;;;;;12.60;100.00;98111.16;5439726;26;20004;-74
2024/04/18 00:08:25;;;;;;;1.35;0.50;;;;;;;12.14;100.00;98036.94;5436808;26;20000;-73
2024/04/18 00:10:53;;;;;;;3.05;0.38;;;;;;;12.37;100.00;98057.53;5423372;26;20655;-74
2024/04/18 00:13:19;;;;;;;1.13;0.30;;;;;;;12.01;100.00;98015.75;5441169;26;20007;-74
2024/04/18 00:15:44;;;;;;;0.40;0.28;;;;;;;11.61;100.00;97998.00;5427153;26;20387;-75
2024/04/18 00:18:10;;;;;;;0.63;0.30;;;;;;;12.14;100.00;97980.13;5427073;26;20461;-74
2024/04/18 00:20:35;;;;;;;0.88;0.30;;;;;;;12.50;100.00;97998.00;5426728;26;20007;-73
2024/04/18 00:23:00;;;;;;;0.20;0.13;;;;;;;12.57;100.00;97953.38;5429700;26;20015;-76
2024/04/18 00:25:26;;;;;;;1.23;0.30;;;;;;;12.88;100.00;97857.69;5443105;26;20003;-73
2024/04/18 00:27:52;;;;;;;1.27;0.30;;;;;;;12.24;100.00;97734.00;5432022;26;20011;-74
2024/04/18 00:30:18;;;;;;;2.35;0.40;;;;;;;12.91;100.00;97760.59;5426922;26;20018;-74
2024/04/18 00:32:43;;;;;;;0.57;0.30;;;;;;;12.99;100.00;97759.06;5434716;26;20003;-74
2024/04/18 00:35:08;;;;;;;1.45;0.20;;;;;;;12.54;100.00;97698.69;5423070;26;20434;-72
2024/04/18 00:37:34;;;;;;;0.60;0.28;;;;;;;12.73;100.00;97667.59;5430940;26;20026;-72
2024/04/18 00:40:00;;;;;;;0.52;0.20;;;;;;;12.54;100.00;97629.09;5436054;26;20434;-76
2024/04/18 00:42:26;;;;;;;1.90;0.40;;;;;;;13.48;100.00;97705.25;5428673;26;20032;-73
2024/04/18 00:44:51;;;;;;;0.55;0.20;;;;;;;13.12;100.00;97715.66;5425368;26;20014;-74
2024/04/18 00:47:16;;;;;;;1.73;0.20;;;;;;;12.64;100.00;97702.22;5434108;26;19994;-77
2024/04/18 00:49:42;;;;;;;0.75;0.20;;;;;;;12.48;100.00;97657.59;5426294;26;20323;-74
2024/04/18 00:52:17;;;;;;;1.17;0.30;;;;;;;12.82;100.00;97554.72;5428899;26;19999;-74
2024/04/18 00:54:42;;;;;;;1.58;0.47;;;;;;;12.65;100.00;97573.03;5422289;26;20000;-76
2024/04/18 00:57:09;;;;;;;1.33;0.40;;;;;;;12.85;100.00;97677.72;5427753;26;20011;-72
2024/04/18 00:59:35;;;;;;;2.63;0.30;;;;;;;12.51;100.00;97755.00;5431007;26;20030;-73
2024/04/18 01:02:00;;;;;;;1.65;0.30;;;;;;;12.54;100.00;97932.38;5430993;26;20342;-73
2024/04/18 01:04:26;;;;;;;1.50;1.17;;;;;;;12.03;100.00;97941.78;5427238;26;19999;-72
2024/04/18 01:06:52;;;;;;;4.93;2.50;;;;;;;12.85;100.00;98240.41;5438202;26;20197;-73
2024/04/18 01:09:19;;;;;;;1.42;0.40;;;;;;;13.01;100.00;98269.13;5437887;26;20003;-73
2024/04/18 01:11:44;;;;;;;3.50;3.15;;;;;;;12.67;100.00;98237.34;5426223;26;20003;-74
2024/04/18 01:14:10;;;;;;;0.77;0.30;;;;;;;11.97;100.00;98164.56;5436004;26;20346;-72
2024/04/18 01:16:36;;;;;;;0.90;0.40;;;;;;;12.87;100.00;98292.97;5431929;26;20003;-74
2024/04/18 01:19:02;;;;;;;1.13;0.30;;;;;;;12.41;100.00;98344.38;5428124;26;20013;-72
2024/04/18 01:21:28;;;;;;;3.28;0.45;;;;;;;12.33;100.00;98375.44;5437675;26;20009;-74
2024/04/18 01:23:54;;;;;;;1.35;0.30;;;;;;;12.33;100.00;98496.91;5427087;26;20000;-72
2024/04/18 01:26:19;;;;;;;1.42;0.30;;;;;;;12.46;100.00;98584.50;5423466;26;20062;-72
2024/04/18 01:28:44;;;;;;;2.47;0.30;;;;;;;12.56;100.00;98683.28;5443095;26;20044;-74
2024/04/18 01:31:10;;;;;;;2.05;0.30;;;;;;;12.73;100.00;98705.28;5433741;26;20003;-71
2024/04/18 01:33:35;;;;;;;0.98;0.30;;;;;;;12.27;100.00;98653.53;5434780;26;19999;-71
2024/04/18 01:36:01;;;;;;;1.15;0.40;;;;;;;12.69;100.00;98721.66;5419397;26;20076;-73
2024/04/18 01:38:26;;;;;;;1.42;0.40;;;;;;;12.08;100.00;98614.72;5429432;26;19999;-72
2024/04/18 01:40:52;;;;;;;3.03;0.40;;;;;;;11.86;100.00;98621.91;5434194;26;20003;-72
2024/04/18 01:43:17;;;;;;;2.40;0.55;;;;;;;11.72;100.00;98612.47;5430115;26;19998;-72
2024/04/18 01:45:43;;;;;;;3.60;0.77;;;;;;;11.47;100.00;98616.41;5433505;26;20337;-72
2024/04/18 01:48:08;;;;;;;1.70;0.60;;;;;;;11.92;100.00;98657.22;5438749;26;20427;-73
2024/04/18 01:50:34;;;;;;;1.00;0.40;;;;;;;12.49;100.00;98816.25;5435971;26;20100;-73
2024/04/18 01:52:59;;;;;;;1.80;0.32;;;;;;;12.69;100.00;98829.56;5434461;26;20043;-72
2024/04/18 01:55:24;;;;;;;4.10;0.50;;;;;;;12.40;100.00;98957.75;5427075;26;20004;-74
2024/04/18 01:57:50;;;;;;;1.45;0.30;;;;;;;12.53;100.00;98986.00;5433212;26;20014;-71
2024/04/18 02:00:15;;;;;;;2.65;0.50;;;;;;;12.56;100.00;99013.84;5428001;26;20337;-73
2024/04/18 02:02:41;;;;;;;0.73;0.20;;;;;;;12.71;100.00;99352.25;5430768;26;19995;-72
2024/04/18 02:05:06;;;;;;;1.33;0.35;;;;;;;13.04;100.00;99366.84;5431308;26;20003;-72
2024/04/18 02:07:32;;;;;;;2.88;0.20;;;;;;;12.96;100.00;99337.44;5427207;26;19995;-70
2024/04/18 02:09:57;;;;;;;2.50;0.50;;;;;;;12.72;100.00;99236.59;5423124;26;19996;-71
2024/04/18 02:12:22;;;;;;;1.02;0.45;;;;;;;12.75;100.00;99249.22;5423259;26;20429;-73
2024/04/18 02:14:48;;;;;;;3.55;0.50;;;;;;;11.93;100.00;99242.88;5430813;26;20499;-72
2024/04/18 02:17:14;;;;;;;1.88;0.38;;;;;;;12.60;100.00;99326.41;5427751;26;20008;-71
2024/04/18 02:19:39;;;;;;;0.98;0.20;;;;;;;11.76;100.00;99234.34;5421932;26;20549;-72
2024/04/18 02:22:04;;;;;;;0.80;0.20;;;;;;;11.89;100.00;99264.28;5433983;26;20002;-71
2024/04/18 02:24:31;;;;;;;0.68;0.10;;;;;;;12.09;100.00;99348.31;5422303;26;20031;-71
2024/04/18 02:26:58;;;;;;;2.38;0.22;;;;;;;12.24;100.00;99417.31;5433553;26;20009;-72
2024/04/18 02:29:23;;;;;;;1.85;0.20;;;;;;;12.07;100.00;99319.53;5435677;26;20031;-72
2024/04/18 02:31:49;;;;;;;0.43;0.10;;;;;;;11.87;100.00;99357.78;5435178;26;20075;-72
2024/04/18 02:34:15;;;;;;;1.10;0.20;;;;;;;12.02;100.00;99461.53;5433406;26;19999;-72
2024/04/18 02:36:40;;;;;;;1.35;0.20;;;;;;;12.27;100.00;99493.63;5426910;26;20063;-72
2024/04/18 02:39:06;;;;;;;2.08;0.20;;;;;;;12.05;100.00;99390.09;5432701;26;20011;-72
2024/04/18 02:41:31;;;;;;;1.33;0.40;;;;;;;12.18;100.00;99347.88;5431423;26;20008;-72
2024/04/18 02:43:57;;;;;;;0.65;0.20;;;;;;;12.97;100.00;99513.41;5433335;26;20439;-73
2024/04/18 02:46:23;;;;;;;0.35;0.20;;;;;;;12.89;100.00;99540.19;5442220;26;20006;-72
2024/04/18 02:48:48;;;;;;;1.15;0.28;;;;;;;12.85;100.00;99594.78;5428763;26;20013;-72
2024/04/18 02:51:14;;;;;;;0.90;0.30;;;;;;;12.87;100.00;99689.94;5424442;26;20007;-71
2024/04/18 02:53:39;;;;;;;1.23;0.40;;;;;;;12.66;100.00;99708.66;5427771;26;20359;-71
2024/04/18 02:56:05;;;;;;;2.05;0.40;;;;;;;13.19;100.00;99727.75;5435445;26;20364;-72
2024/04/18 02:58:30;;;;;;;0.77;0.20;;;;;;;12.69;100.00;99632.06;5429168;26;19995;-72
2024/04/18 03:00:56;;;;;;;0.98;0.10;;;;;;;12.10;100.00;99550.41;5424039;26;19998;-72
2024/04/18 03:03:21;;;;;;;0.80;0.10;;;;;;;12.08;100.00;99588.69;5425405;26;20009;-71
2024/04/18 03:05:46;;;;;;;0.30;0.10;;;;;;;11.62;100.00;99504.81;5427560;26;20002;-73
2024/04/18 03:08:12;;;;;;;0.17;0.10;;;;;;;11.69;100.00;99502.84;5431751;26;19999;-70
2024/04/18 03:10:46;;;;;;;0.45;0.20;;;;;;;11.13;100.00;99365.94;5431109;26;19995;-71
2024/04/18 03:13:12;;;;;;;3.60;0.30;;;;;;;11.55;100.00;99367.66;5434077;26;20031;-72
2024/04/18 03:15:43;;;;;;;1.95;0.30;;;;;;;11.26;100.00;99227.19;5421149;26;20072;-71
2024/04/18 03:18:08;;;;;;;0.77;0.57;;;;;;;11.83;100.00;99220.44;5436797;26;20434;-71
2024/04/18 03:20:34;;;;;;;1.08;0.52;;;;;;;11.24;100.00;99038.16;5433928;26;20021;-71
2024/04/18 03:23:00;;;;;;;1.85;0.80;;;;;;;10.95;100.00;98893.69;5427714;26;20003;-72
2024/04/18 03:25:26;;;;;;;3.22;0.82;;;;;;;11.47;100.00;98945.47;5420674;26;19996;-72
2024/04/18 03:27:53;;;;;;;0.80;0.60;;;;;;;11.80;100.00;98918.41;5422056;26;20015;-71
2024/04/18 03:30:18;;;;;;;1.27;0.80;;;;;;;10.96;100.00;98783.47;5424372;26;20328;-72
2024/04/18 03:32:44;;;;;;;1.30;0.90;;;;;;;10.93;100.00;98778.56;5429875;26;19995;-70
2024/04/18 03:35:09;;;;;;;2.85;1.08;;;;;;;11.08;100.00;98765.09;5433993;26;19995;-70
2024/04/18 03:37:34;;;;;;;1.98;1.02;;;;;;;10.81;100.00;98613.09;5420164;26;20360;-70
2024/04/18 03:40:00;;;;;;;3.85;1.55;;;;;;;11.39;100.00;98725.38;5425923;26;20510;-74
2024/04/18 03:42:25;;;;;;;1.90;1.70;;;;;;;10.74;100.00;98592.25;5419018;26;20002;-70
2024/04/18 03:44:51;;;;;;;2.90;2.00;;;;;;;11.33;100.00;98572.13;5422708;26;20010;-70
2024/04/18 03:47:16;;;;;;;2.88;2.17;;;;;;;11.13;100.00;98543.59;5420514;26;20006;-71
2024/04/18 03:49:42;;;;;;;2.78;2.33;;;;;;;10.14;100.00;98359.19;5425683;26;20007;-71
2024/04/18 03:52:07;;;;;;;2.75;2.40;;;;;;;10.80;100.00;98477.56;5419464;26;20012;-70
2024/04/18 03:54:33;;;;;;;3.05;2.42;;;;;;;11.21;100.00;98537.19;5420450;26;20006;-71
2024/04/18 03:56:58;;;;;;;2.67;2.38;;;;;;;11.14;100.00;98469.75;5417789;26;20327;-72
2024/04/18 03:59:24;;;;;;;4.07;2.47;;;;;;;11.14;100.00;98524.88;5410603;26;20093;-70
2024/04/18 04:01:49;;;;;;;3.58;2.92;;;;;;;11.36;100.00;98548.25;5414922;26;19999;-70
2024/04/18 04:04:15;;;;;;;3.45;3.15;;;;;;;10.81;100.00;98516.50;5419048;26;20007;-70
2024/04/18 04:06:40;;;;;;;3.90;2.90;;;;;;;10.90;100.00;98582.09;5421344;26;20010;-70
2024/04/18 04:09:06;;;;;;;4.68;3.05;;;;;;;11.02;100.00;98592.47;5421488;26;20335;-71
2024/04/18 04:11:31;;;;;;;4.60;3.35;;;;;;;11.05;100.00;98602.47;5414516;26;20337;-74
2024/04/18 04:13:57;;;;;;;6.53;3.33;;;;;;;10.97;100.00;98617.28;5419366;26;20008;-70
2024/04/18 04:16:22;;;;;;;5.05;3.70;;;;;;;10.43;100.00;98488.00;5416736;26;20072;-71
2024/04/18 04:18:54;;;;;;;4.78;4.15;;;;;;;10.95;100.00;98554.75;5418668;26;20080;-69
2024/04/18 04:21:20;;;;;;;5.40;3.70;;;;;;;10.48;100.00;98546.22;5415619;26;19999;-70
2024/04/18 04:23:46;;;;;;;4.72;3.78;;;;;;;10.80;100.00;98552.97;5415287;26;20330;-68
2024/04/18 04:26:11;;;;;;;5.13;3.35;;;;;;;10.91;100.00;98499.88;5420200;26;20017;-71
2024/04/18 04:28:37;;;;;;;4.63;3.45;;;;;;;10.56;100.00;98483.13;5416733;26;20327;-70
2024/04/18 04:31:02;;;;;;;5.72;3.67;;;;;;;10.79;100.00;98531.84;5414957;26;20006;-70
2024/04/18 04:33:31;;;;;;;4.55;3.80;;;;;;;10.74;100.00;98462.63;5421096;26;20400;-69
2024/04/18 04:35:57;;;;;;;5.13;3.75;;;;;;;10.92;100.00;98491.31;5419302;26;20011;-68
2024/04/18 04:38:23;;;;;;;4.45;3.55;;;;;;;11.09;100.00;98476.81;5421800;26;20035;-69
2024/04/18 04:40:48;;;;;;;6.40;4.40;;;;;;;10.86;100.00;98459.44;5433166;26;19995;-73
2024/04/18 04:43:14;;;;;;;4.97;3.95;;;;;;;11.14;100.00;98436.69;5428245;26;20014;-69
2024/04/18 04:45:40;;;;;;;5.95;4.30;;;;;;;11.37;100.00;98477.84;5422043;26;20355;-72
2024/04/18 04:48:06;;;;;;;7.18;4.30;;;;;;;11.81;100.00;98456.66;5417958;26;20011;-71
2024/04/18 04:50:31;;;;;;;7.53;3.97;;;;;;;11.02;100.00;98495.03;5433534;26;20445;-70
2024/04/18 04:52:57;;;;;;;4.43;3.78;;;;;;;10.60;100.00;98368.50;5419856;26;19995;-69
2024/04/18 04:55:22;;;;;;;5.25;4.28;;;;;;;11.91;100.00;98462.84;5418825;26;19998;-71
2024/04/18 04:57:47;;;;;;;5.22;3.65;;;;;;;11.39;100.00;98453.94;5423931;26;20372;-69
2024/04/18 05:00:13;;;;;;;6.13;4.40;;;;;;;11.44;100.00;98337.47;5430212;26;19995;-70
2024/04/18 05:02:39;;;;;;;5.68;3.70;;;;;;;11.90;100.00;98361.91;5424914;26;22276;-69
2024/04/18 05:05:04;;;;;;;4.22;3.60;;;;;;;11.75;100.00;98383.16;5422163;26;20011;-68
2024/04/18 05:07:30;;;;;;;6.40;3.90;;;;;;;12.16;100.00;98324.69;5423883;26;19995;-69
2024/04/18 05:09:56;;;;;;;3.95;3.40;;;;;;;11.99;100.00;98314.69;5423815;26;20044;-69
2024/04/18 05:12:21;;;;;;;5.70;3.75;;;;;;;11.83;100.00;98246.06;5426532;26;19995;-70
2024/04/18 05:14:46;;;;;;;5.22;4.10;;;;;;;12.31;100.00;98335.66;5429524;26;20007;-68
2024/04/18 05:17:12;;;;;;;5.00;3.75;;;;;;;12.25;100.00;98375.06;5425890;26;19996;-69
2024/04/18 05:19:37;;;;;;;4.65;3.90;;;;;;;12.05;100.00;98383.91;5423951;26;19999;-70
2024/04/18 05:22:03;;;;;;;4.38;3.75;;;;;;;12.20;100.00;98332.03;5438099;26;19995;-68
2024/04/18 05:24:28;;;;;;;5.28;3.47;;;;;;;11.82;100.00;98343.72;5424919;26;20006;-69
2024/04/18 05:26:54;;;;;;;4.38;3.80;;;;;;;12.16;100.00;98427.38;5421846;26;20041;-69
2024/04/18 05:32:04;;;;;;;5.07;3.67;;;;;;;11.56;100.00;98478.47;5427632;26;20342;-69
2024/04/18 05:34:30;;;;;;;4.85;3.22;;;;;;;10.89;100.00;98380.47;5431978;26;20002;-69
2024/04/18 05:36:56;;;;;;;4.32;3.33;;;;;;;11.43;100.00;98457.97;5437453;26;20392;-69
2024/04/18 05:39:22;;;;;;;3.67;3.22;;;;;;;12.50;100.00;98361.66;5435731;26;20036;-70
2024/04/18 05:41:47;;;;;;;4.90;3.80;;;;;;;12.60;100.00;98482.50;5429141;26;20007;-69
2024/04/18 05:44:13;;;;;;;4.38;3.17;;;;;;;13.29;100.00;98401.63;5417750;26;20015;-69
2024/04/18 05:46:42;;;;;;;5.00;3.20;;;;;;;13.35;100.00;98401.25;5439240;26;20015;-69
2024/04/18 05:49:08;;;;;;;5.28;3.42;;;;;;;14.29;100.00;98446.91;5437300;26;20489;-71
2024/04/18 05:51:33;;;;;;;3.45;2.95;;;;;;;14.24;100.00;98418.25;5430029;26;20021;-69
2024/04/18 05:53:58;;;;;;;4.88;3.25;;;;;;;14.00;100.00;98455.69;5429654;26;19999;-69
2024/04/18 05:56:24;;;;;;;3.42;2.55;;;;;;;13.66;100.00;98472.41;5427805;26;20003;-69
2024/04/18 05:58:49;;;;;;;3.67;2.80;;;;;;;14.77;100.00;98504.13;5428418;26;20003;-69
2024/04/18 06:01:15;;;;;;;2.60;2.40;;;;;;;14.20;100.00;98488.38;5434646;26;20018;-70
2024/04/18 06:03:40;;;;;;;3.70;2.47;;;;;;;12.94;100.00;98434.47;5438502;26;20039;-73
2024/04/18 06:06:06;;;;;;;4.25;3.10;;;;;;;13.48;100.00;98498.28;5434105;26;20002;-69
2024/04/18 06:08:32;;;;;;;3.58;2.38;;;;;;;13.36;100.00;98494.78;5431724;26;20011;-69
2024/04/18 06:10:57;;;;;;;3.70;3.00;;;;;;;14.21;100.00;98523.25;5424803;26;20003;-71
2024/04/18 06:13:24;;;;;;;3.60;2.40;;;;;;;14.04;100.00;98453.75;5433930;26;20416;-69
2024/04/18 06:15:50;;;;;;;3.05;2.30;;;;;;;13.77;100.00;98480.19;5429834;26;20018;-68
2024/04/18 06:18:15;;;;;;;3.35;2.30;;;;;;;13.97;100.00;98470.38;5432729;26;20336;-69
2024/04/18 06:20:46;;;;;;;3.33;2.35;;;;;;;14.03;100.00;98590.06;5421018;26;20338;-70
2024/04/18 06:23:12;;;;;;;2.72;2.40;;;;;;;13.61;100.00;98534.88;5418695;26;20006;-73
2024/04/18 06:25:39;;;;;;;5.18;2.20;;;;;;;13.73;100.00;98606.44;5417730;26;20018;-69
2024/04/18 06:28:12;;;;;;;4.07;2.97;;;;;;;14.10;100.00;98548.72;5433291;26;19999;-69
2024/04/18 06:30:38;;;;;;;4.55;2.80;;;;;;;14.18;100.00;98549.00;5434008;26;19999;-72
2024/04/18 06:33:04;;;;;;;4.20;1.80;;;;;;;13.75;100.00;98675.31;5426739;26;20017;-69
2024/04/18 06:35:30;;;;;;;3.05;2.38;;;;;;;13.65;100.00;98704.88;5441762;26;19999;-70
2024/04/18 06:37:56;;;;;;;3.70;2.45;;;;;;;12.55;100.00;98576.31;5424756;26;20715;-69
2024/04/18 06:40:23;;;;;;;4.00;2.63;;;;;;;13.60;100.00;98707.72;5432143;26;20006;-73
2024/04/18 06:42:52;;;;;;;4.45;2.60;;;;;;;13.23;100.00;98653.88;5426782;26;20018;-69
2024/04/18 06:45:19;;;;;;;5.00;3.28;;;;;;;13.46;100.00;98720.50;5434346;26;19995;-72
2024/04/18 06:47:44;;;;;;;7.82;3.60;;;;;;;12.92;100.00;98642.06;5425441;26;20028;-70
2024/04/18 06:50:10;;;;;;;4.78;3.53;;;;;;;12.86;100.00;98648.38;5432154;26;20018;-69
2024/04/18 06:52:36;;;;;;;5.90;3.50;;;;;;;13.25;100.00;98654.59;5432062;26;20035;-70
2024/04/18 06:55:02;;;;;;;3.60;2.92;;;;;;;13.55;100.00;98767.63;5420427;26;20010;-72
2024/04/18 06:57:27;;;;;;;3.53;2.50;;;;;;;13.77;100.00;98735.59;5436789;26;20004;-72
2024/04/18 06:59:53;;;;;;;5.00;2.60;;;;;;;13.59;100.00;98661.84;5425966;26;20034;-70
2024/04/18 07:02:18;;;;;;;4.30;2.53;;;;;;;13.90;100.00;98698.16;5434733;26;20003;-70
2024/04/18 07:04:45;;;;;;;3.38;2.40;;;;;;;13.51;100.00;98708.28;5430807;26;20405;-69
2024/04/18 07:07:11;;;;;;;3.00;2.35;;;;;;;13.72;100.00;98801.50;5427411;26;20071;-69
2024/04/18 07:09:36;;;;;;;3.47;2.40;;;;;;;13.67;100.00;98798.38;5424624;26;20057;-70
2024/04/18 07:12:02;;;;;;;5.05;2.60;;;;;;;13.61;100.00;98839.59;5429337;26;20417;-69
2024/04/18 07:14:28;;;;;;;3.65;2.70;;;;;;;12.86;100.00;98786.09;5437379;26;19999;-70
2024/04/18 07:16:53;;;;;;;3.03;2.45;;;;;;;13.59;100.00;98833.75;5428945;26;20010;-69
2024/04/18 07:19:18;;;;;;;6.18;2.80;;;;;;;13.66;100.00;98768.66;5426394;26;20003;-69
2024/04/18 07:21:44;;;;;;;3.75;2.80;;;;;;;13.62;100.00;98767.19;5428086;26;20000;-70
2024/04/18 07:24:09;;;;;;;4.72;2.83;;;;;;;13.56;100.00;98871.41;5421672;26;20334;-70
2024/04/18 07:26:35;;;;;;;5.55;3.33;;;;;;;14.09;100.00;98861.41;5420330;26;20015;-70
2024/04/18 07:29:00;;;;;;;9.93;4.80;;;;;;;14.12;100.00;98894.47;5425460;26;20075;-69
2024/04/18 07:31:26;;;;;;;4.72;3.20;;;;;;;13.70;100.00;98810.97;5425499;26;20018;-69
2024/04/18 07:33:51;;;;;;;5.78;3.58;;;;;;;14.28;100.00;98900.31;5428414;26;20000;-69
2024/04/18 07:36:21;;;;;;;6.95;4.75;;;;;;;14.23;100.00;98921.91;5430705;26;20337;-71
2024/04/18 07:38:47;;;;;;;5.47;3.58;;;;;;;13.78;100.00;98920.34;5422331;26;20022;-70
2024/04/18 07:41:12;;;;;;;4.28;3.42;;;;;;;13.99;100.00;98987.25;5424178;26;20003;-68
2024/04/18 07:43:37;;;;;;;5.70;2.53;;;;;;;13.86;100.00;98898.53;5432598;26;20011;-70
2024/04/18 07:46:04;;;;;;;3.28;2.60;;;;;;;14.46;100.00;98947.78;5430387;26;20039;-69
2024/04/18 07:48:31;;;;;;;4.75;2.75;;;;;;;14.45;100.00;99002.41;5421981;26;20511;-71
2024/04/18 07:50:57;;;;;;;3.83;2.80;;;;;;;14.26;100.00;98991.59;5423620;26;20000;-69
2024/04/18 07:53:22;;;;;;;2.80;2.13;;;;;;;14.26;100.00;98897.00;5423700;26;20523;-70
2024/04/18 07:55:47;;;;;;;3.83;2.30;;;;;;;14.92;100.00;99021.75;5424973;26;20532;-70
2024/04/18 07:58:13;;;;;;;2.97;1.88;;;;;;;14.39;100.00;98943.13;5430949;26;20022;-70
2024/04/18 08:00:39;;;;;;;5.00;2.72;;;;;;;14.60;100.00;99042.41;5431282;26;20002;-69
2024/04/18 08:03:04;;;;;;;7.28;3.13;;;;;;;14.42;100.00;99058.03;5436652;26;20043;-69
2024/04/18 08:05:30;;;;;;;3.65;2.38;;;;;;;14.05;100.00;99041.41;5425958;26;20007;-69
2024/04/18 08:07:55;;;;;;;3.33;2.03;;;;;;;13.90;100.00;99030.31;5421704;26;20334;-70
2024/04/18 08:10:20;;;;;;;3.38;1.77;;;;;;;13.58;100.00;99013.44;5432299;26;20038;-70
2024/04/18 08:12:46;;;;;;;2.33;1.98;;;;;;;14.55;100.00;99082.81;5425134;26;20077;-71
2024/04/18 08:15:13;;;;;;;2.17;1.75;;;;;;;14.46;100.00;99105.53;5429028;26;20027;-75
2024/04/18 08:17:39;;;;;;;3.65;2.20;;;;;;;14.20;100.00;99112.09;5429293;26;20010;-71
2024/04/18 08:20:05;;;;;;;3.30;2.10;;;;;;;14.65;100.00;99111.22;5428471;26;20350;-70
2024/04/18 08:22:31;;;;;;;2.90;2.10;;;;;;;14.08;100.00;99025.06;5429257;26;20003;-69
2024/04/18 08:24:57;;;;;;;2.00;1.70;;;;;;;14.14;100.00;99078.41;5430521;26;20015;-70
2024/04/18 08:27:22;;;;;;;2.83;1.60;;;;;;;14.42;100.00;99045.25;5430552;26;20014;-70
2024/04/18 08:29:48;;;;;;;3.33;2.55;;;;;;;14.47;100.00;99030.44;5432330;26;20782;-70
2024/04/18 08:32:13;;;;;;;3.08;1.60;;;;;;;15.74;100.00;99072.06;5421403;26;20012;-69
2024/04/18 08:34:38;;;;;;;2.92;2.10;;;;;;;15.24;100.00;99121.28;5434964;26;20361;-70
2024/04/18 08:37:04;;;;;;;2.33;1.70;;;;;;;15.09;100.00;99058.22;5419545;26;20031;-73
2024/04/18 08:39:29;;;;;;;2.28;1.25;;;;;;;15.29;100.00;99126.94;5420525;26;20328;-69
2024/04/18 08:41:56;;;;;;;2.10;1.50;;;;;;;15.29;100.00;99146.63;5428913;26;20004;-70
2024/04/18 08:44:21;;;;;;;2.08;1.20;;;;;;;15.50;100.00;99117.16;5432154;26;20325;-72
2024/04/18 08:46:49;;;;;;;2.15;1.30;;;;;;;15.46;100.00;99075.53;5427656;26;20053;-69
2024/04/18 08:49:18;;;;;;;2.88;1.48;;;;;;;15.93;100.00;99122.97;5424335;26;20102;-70
2024/04/18 08:51:54;;;;;;;1.65;1.10;;;;;;;15.67;100.00;99175.06;5426404;26;20003;-71
2024/04/18 08:54:20;;;;;;;3.03;1.45;;;;;;;15.59;100.00;99081.53;5423739;26;20000;-70
2024/04/18 08:56:49;;;;;;;4.15;2.55;;;;;;;15.61;100.00;99164.25;5432258;26;20019;-70
2024/04/18 08:59:14;;;;;;;2.58;1.30;;;;;;;15.36;100.00;99151.28;5430035;26;20007;-70
2024/04/18 09:01:41;;;;;;;1.70;1.40;;;;;;;14.85;100.00;99126.25;5425467;26;22237;-68
2024/04/18 09:04:06;;;;;;;2.17;1.30;;;;;;;15.34;100.00;99142.88;5426995;26;20011;-69
2024/04/18 09:06:33;;;;;;;4.22;2.30;;;;;;;15.97;100.00;99144.94;5415840;26;20000;-71
2024/04/18 09:09:01;;;;;;;3.75;1.40;;;;;;;15.15;100.00;99185.03;5430303;26;20004;-69
2024/04/18 09:11:26;;;;;;;2.42;1.52;;;;;;;15.61;100.00;99161.69;5049022;26;10000429;-72
2024/04/18 09:13:52;;;;;;;5.63;1.20;;;;;;;15.81;100.00;99147.63;5424052;26;20014;-69
2024/04/18 09:16:17;;;;;;;2.38;1.60;;;;;;;15.74;100.00;99173.75;5430270;26;20017;-70
2024/04/18 09:18:43;;;;;;;2.30;1.70;;;;;;;15.49;100.00;99166.72;5422876;26;20932;-69
2024/04/18 09:21:10;;;;;;;3.20;1.80;;;;;;;15.91;100.00;99164.09;5422277;26;19994;-69
2024/04/18 09:23:40;;;;;;;2.20;1.52;;;;;;;16.01;100.00;99139.53;5430848;26;19999;-72
2024/04/18 09:26:05;;;;;;;3.97;1.67;;;;;;;15.43;100.00;99057.78;5427230;26;20858;-72
2024/04/18 09:28:32;;;;;;;1.80;1.10;;;;;;;15.54;100.00;99188.63;5423018;26;19999;-69
2024/04/18 09:30:58;;;;;;;2.92;1.30;;;;;;;15.29;100.00;99111.56;5426306;26;19998;-70
2024/04/18 09:33:25;;;;;;;2.17;1.25;;;;;;;15.39;100.00;99104.97;5430466;26;20003;-75
2024/04/18 09:35:57;;;;;;;1.45;1.20;;;;;;;15.00;100.00;99111.69;5429733;26;20014;-72
2024/04/18 09:38:25;;;;;;;2.58;1.52;;;;;;;15.52;100.00;99112.75;5426737;26;20003;-71
2024/04/18 09:41:00;;;;;;;3.53;2.67;;;;;;;15.48;100.00;99167.66;5430260;26;20034;-73
2024/04/18 09:43:43;;;;;;;3.83;1.50;;;;;;;15.30;100.00;99112.41;5421629;26;20007;-71
2024/04/18 09:46:09;;;;;;;1.85;1.20;;;;;;;14.47;100.00;99130.19;5425767;26;20031;-79
2024/04/18 09:48:35;;;;;;;2.20;1.05;;;;;;;15.23;100.00;99203.34;5426448;26;20482;-72
2024/04/18 09:51:03;;;;;;;1.75;1.05;;;;;;;15.86;100.00;99178.94;5433807;26;20002;-71
2024/04/18 09:53:31;;;;;;;1.83;1.00;;;;;;;15.73;100.00;99192.63;5436921;26;20003;-76
2024/04/18 09:55:59;;;;;;;1.48;0.95;;;;;;;15.22;100.00;99125.69;5434561;26;20025;-71
2024/04/18 09:58:26;;;;;;;1.10;0.80;;;;;;;14.82;100.00;99059.88;5430934;26;20015;-72
2024/04/18 10:00:52;;;;;;;2.78;0.98;;;;;;;16.23;100.00;99182.56;5429263;26;20071;-71
2024/04/18 10:03:18;;;;;;;3.17;1.20;;;;;;;16.12;100.00;99180.69;5417977;26;20047;-71
2024/04/18 10:05:49;;;;;;;1.95;1.23;;;;;;;15.27;100.00;99136.44;5435869;26;20015;-72
2024/04/18 10:08:16;;;;;;;;;;;;;;;15.91;100.00;99194.03;5430194;26;20004;-72
2024/04/18 10:10:43;;;;;;;2.53;1.65;;;;;;;16.15;100.00;99125.81;5431751;26;19925;-71
2024/04/18 10:13:09;;;;;;;3.40;1.80;;;;;;;16.23;100.00;99137.22;5424840;26;19999;-76
2024/04/18 10:15:34;;;;;;;5.63;1.40;;;;;;;16.65;100.00;99117.41;5435161;26;20354;-71
2024/04/18 10:18:14;;;;;;;2.55;1.10;;;;;;;16.06;100.00;99045.19;5430936;26;20322;-71
2024/04/18 10:20:44;;;;;;;1.55;1.00;;;;;;;16.09;100.00;99168.06;5431210;26;20014;-72
2024/04/18 10:23:13;;;;;;;1.00;0.75;;;;;;;16.08;100.00;99163.03;5426148;26;20003;-71
2024/04/18 10:25:40;;;;;;;1.83;0.90;;;;;;;16.00;100.00;99168.66;5431503;26;20008;-71
2024/04/18 10:28:26;;;;;;;2.17;1.05;;;;;;;15.66;100.00;99173.41;5425389;26;20077;-71
2024/04/18 10:30:52;;;;;;;1.58;0.90;;;;;;;14.42;100.00;99127.88;5429083;26;20010;-73
2024/04/18 10:33:27;;;;;;;1.52;1.00;;;;;;;14.85;100.00;99089.56;5424475;26;20461;-71
2024/04/18 10:35:53;;;;;;;1.52;1.02;;;;;;;15.20;100.00;99132.63;5430225;26;20021;-71
2024/04/18 10:38:28;;;;;;;1.63;1.02;;;;;;;15.55;100.00;99090.31;5423633;26;20015;-70
2024/04/18 10:41:04;;;;;;;4.28;1.38;;;;;;;14.99;100.00;99017.91;5439551;26;20014;-73
2024/04/18 10:43:32;;;;;;;2.42;1.55;;;;;;;14.94;100.00;99120.56;5430495;26;20035;-71
2024/04/18 10:46:00;;;;;;;2.55;1.42;;;;;;;15.10;100.00;99111.06;5426064;26;20349;-70
2024/04/18 10:48:26;;;;;;;2.40;1.70;;;;;;;15.77;100.00;99069.28;5427945;26;20356;-71
2024/04/18 10:50:52;;;;;;;2.38;1.80;;;;;;;15.44;100.00;98997.16;5428580;26;20012;-70
2024/04/18 10:53:19;;;;;;;2.67;1.80;;;;;;;15.65;100.00;98964.22;5438309;26;20000;-70
2024/04/18 10:55:45;;;;;;;2.85;1.85;;;;;;;15.48;100.00;98966.13;5429630;26;20438;-70
2024/04/18 10:58:15;;;;;;;3.30;2.65;;;;;;;15.81;100.00;99014.34;5430465;26;20003;-71
2024/04/18 11:00:44;;;;;;;5.53;4.13;;;;;;;15.71;100.00;99020.19;5423354;26;20018;-70
2024/04/18 11:03:11;;;;;;;4.75;3.53;;;;;;;15.14;100.00;98879.53;5433269;26;20026;-70
2024/04/18 11:05:46;;;;;;;5.53;3.83;;;;;;;15.94;100.00;98975.94;5435519;26;20441;-70
2024/04/18 11:08:11;;;;;;;5.45;3.38;;;;;;;15.88;100.00;98979.72;5424995;26;20403;-70
2024/04/18 11:10:38;;;;;;;5.93;3.42;;;;;;;15.30;100.00;98940.81;5425207;26;19999;-71
2024/04/18 11:13:04;;;;;;;8.00;4.57;;;;;;;15.46;100.00;98909.03;5434929;26;21664;-70
2024/04/18 11:15:31;;;;;;;4.68;3.17;;;;;;;16.21;100.00;98980.06;5430309;26;20048;-70
2024/04/18 11:18:00;;;;;;;4.22;3.30;;;;;;;15.80;100.00;98910.22;5435110;26;20015;-70
2024/04/18 11:20:26;;;;;;;5.25;2.60;;;;;;;15.90;100.00;98956.56;5433855;26;20014;-70
2024/04/18 11:22:53;;;;;;;4.57;3.00;;;;;;;15.60;100.00;98956.81;5426719;26;20014;-69